createdAt,value
2023-09-05T00:02:03.670Z,25.30
2023-09-05T00:05:07.002Z,27.80
2023-09-05T00:08:08.769Z,28.00
2023-09-05T00:11:10.421Z,26.30
2023-09-05T00:14:12.801Z,27.60
2023-09-05T00:17:14.508Z,28.20
2023-09-05T00:20:17.063Z,26.50
2023-09-05T00:23:18.657Z,27.00
2023-09-05T00:26:20.422Z,25.90
2023-09-05T00:29:23.594Z,27.10
2023-09-05T00:32:25.206Z,24.90
2023-09-05T00:35:27.240Z,23.30
2023-09-05T00:38:29.633Z,23.90
2023-09-05T00:41:31.211Z,23.70
2023-09-05T00:44:32.972Z,26.20
2023-09-05T00:47:34.575Z,150.20
2023-09-05T00:50:36.356Z,82.80
2023-09-05T00:53:38.127Z,57.80
2023-09-05T00:56:39.833Z,53.30
2023-09-05T00:59:42.540Z,18.40
2023-09-05T01:02:44.205Z,21.00
2023-09-05T01:05:48.882Z,18.10
2023-09-05T01:08:57.625Z,23.60
2023-09-05T01:11:59.349Z,31.80
2023-09-05T01:15:01.055Z,39.70
2023-09-05T01:18:02.740Z,24.40
2023-09-05T01:21:10.432Z,25.90
2023-09-05T01:24:21.738Z,27.90
2023-09-05T01:27:24.980Z,32.50
2023-09-05T01:30:28.842Z,25.50
2023-09-05T01:33:30.429Z,24.10
2023-09-05T01:36:32.110Z,25.30
2023-09-05T01:39:33.796Z,43.00
2023-09-05T01:42:35.483Z,26.90
2023-09-05T01:45:37.140Z,23.40
2023-09-05T01:48:38.918Z,25.20
2023-09-05T01:51:40.553Z,24.80
2023-09-05T01:54:42.663Z,24.20
2023-09-05T01:57:44.232Z,23.10
2023-09-05T02:00:45.962Z,22.40
2023-09-05T02:03:48.921Z,22.40
2023-09-05T02:06:50.587Z,27.30
2023-09-05T02:09:52.180Z,28.30
2023-09-05T02:12:53.829Z,35.00
2023-09-05T02:15:55.544Z,45.80
2023-09-05T02:18:58.108Z,56.10
2023-09-05T02:21:59.777Z,39.80
2023-09-05T02:25:01.599Z,60.50
2023-09-05T02:28:03.563Z,44.00
2023-09-05T02:31:06.695Z,46.80
2023-09-05T02:34:08.307Z,38.10
2023-09-05T02:37:09.843Z,38.80
2023-09-05T02:40:11.936Z,34.50
2023-09-05T02:43:14.482Z,41.90
2023-09-05T02:46:16.705Z,30.90
2023-09-05T02:49:18.485Z,24.80
2023-09-05T02:52:20.051Z,26.70
2023-09-05T02:55:21.896Z,28.20
2023-09-05T02:58:23.562Z,25.20
2023-09-05T03:01:25.434Z,137.70
2023-09-05T03:04:27.307Z,26.80
2023-09-05T03:07:29.385Z,182.70
2023-09-05T03:10:31.062Z,261.00
2023-09-05T03:13:32.689Z,135.20
2023-09-05T03:16:34.319Z,39.20
2023-09-05T03:19:40.471Z,27.70
2023-09-05T03:22:42.578Z,28.50
2023-09-05T03:25:44.509Z,29.50
2023-09-05T03:28:46.541Z,27.20
2023-09-05T03:31:49.330Z,26.30
2023-09-05T03:34:50.919Z,26.70
2023-09-05T03:37:52.536Z,24.40
2023-09-05T03:40:57.312Z,26.60
2023-09-05T03:43:58.910Z,26.60
2023-09-05T03:47:00.701Z,22.30
2023-09-05T03:50:02.271Z,23.90
2023-09-05T03:53:04.128Z,24.10
2023-09-05T03:56:06.466Z,22.00
2023-09-05T03:59:08.139Z,24.30
2023-09-05T04:02:09.833Z,21.10
2023-09-05T04:05:11.437Z,20.40
2023-09-05T04:08:13.200Z,23.90
2023-09-05T04:11:14.768Z,46.20
2023-09-05T04:14:16.509Z,49.50
2023-09-05T04:17:18.391Z,39.30
2023-09-05T04:20:20.275Z,56.40
2023-09-05T04:23:22.037Z,41.50
2023-09-05T04:26:23.961Z,59.60
2023-09-05T04:29:25.936Z,44.60
2023-09-05T04:32:27.851Z,25.40
2023-09-05T04:35:30.918Z,42.50
2023-09-05T04:38:32.536Z,22.00
2023-09-05T04:41:34.394Z,26.70
2023-09-05T04:44:36.216Z,25.90
2023-09-05T04:47:38.255Z,31.20
2023-09-05T04:50:39.810Z,30.50
2023-09-05T04:53:42.201Z,31.80
2023-09-05T04:56:43.838Z,33.10
2023-09-05T04:59:46.247Z,31.90
2023-09-05T05:02:48.066Z,32.20
2023-09-05T05:05:49.792Z,29.40
2023-09-05T05:08:51.430Z,30.00
2023-09-05T05:11:53.119Z,29.40
2023-09-05T05:14:55.018Z,30.90
2023-09-05T05:17:56.682Z,27.70
2023-09-05T05:20:58.634Z,27.10
2023-09-05T05:24:00.354Z,28.10
2023-09-05T05:27:02.249Z,28.50
2023-09-05T05:30:04.297Z,24.40
2023-09-05T05:33:06.002Z,24.40
2023-09-05T05:36:07.856Z,25.20
2023-09-05T05:39:13.218Z,24.40
2023-09-05T05:42:14.917Z,23.60
2023-09-05T05:45:16.707Z,25.40
2023-09-05T05:48:18.394Z,25.80
2023-09-05T05:51:20.212Z,28.10
2023-09-05T05:54:22.070Z,29.90
2023-09-05T05:57:23.732Z,29.00
2023-09-05T06:00:25.540Z,29.70
2023-09-05T06:03:27.305Z,26.70
2023-09-05T06:06:29.494Z,31.00
2023-09-05T06:09:31.507Z,27.00
2023-09-05T06:12:33.226Z,25.80
2023-09-05T06:15:35.144Z,22.10
2023-09-05T06:18:40.089Z,22.90
2023-09-05T06:21:42.206Z,25.50
2023-09-05T06:24:44.087Z,24.20
2023-09-05T06:27:45.971Z,22.30
2023-09-05T06:30:47.705Z,23.10
2023-09-05T06:33:49.350Z,21.20
2023-09-05T06:36:51.072Z,21.40
2023-09-05T06:39:52.782Z,23.20
2023-09-05T06:42:54.332Z,19.90
2023-09-05T06:46:03.788Z,26.60
2023-09-05T06:49:05.573Z,22.80
2023-09-05T06:52:07.185Z,20.70
2023-09-05T06:55:09.168Z,22.20
2023-09-05T06:58:10.735Z,21.80
2023-09-05T07:01:12.377Z,19.80
2023-09-05T07:04:14.758Z,19.70
2023-09-05T07:07:16.733Z,20.90
2023-09-05T07:10:18.382Z,20.40
2023-09-05T07:13:20.006Z,22.30
2023-09-05T07:16:21.835Z,21.60
2023-09-05T07:19:23.796Z,19.80
2023-09-05T07:22:25.440Z,19.60
2023-09-05T07:25:27.177Z,20.10
2023-09-05T07:28:29.676Z,19.40
2023-09-05T07:31:31.610Z,20.90
2023-09-05T07:34:33.358Z,18.80
2023-09-05T07:37:34.979Z,20.00
2023-09-05T07:40:36.596Z,19.20
2023-09-05T07:43:38.565Z,21.40
2023-09-05T07:46:40.400Z,19.70
2023-09-05T07:49:41.991Z,21.50
2023-09-05T07:52:43.646Z,20.00
2023-09-05T07:55:45.523Z,20.20
2023-09-05T07:58:47.193Z,19.70
2023-09-05T08:01:48.907Z,20.00
2023-09-05T08:04:50.512Z,21.60
2023-09-05T08:07:52.226Z,21.60
2023-09-05T08:10:54.194Z,20.90
2023-09-05T08:13:57.189Z,19.90
2023-09-05T08:16:59.067Z,20.50
2023-09-05T08:20:00.692Z,22.40
2023-09-05T08:23:02.411Z,18.90
2023-09-05T08:26:04.251Z,21.80
2023-09-05T08:29:05.964Z,20.00
2023-09-05T08:32:07.929Z,20.10
2023-09-05T08:35:10.376Z,17.90
2023-09-05T08:38:12.036Z,18.20
2023-09-05T08:41:13.762Z,20.10
2023-09-05T08:44:15.371Z,17.90
2023-09-05T08:47:17.020Z,17.50
2023-09-05T08:50:18.807Z,20.10
2023-09-05T08:53:24.117Z,15.70
2023-09-05T08:56:26.460Z,16.00
2023-09-05T08:59:29.058Z,18.60
2023-09-05T09:02:30.762Z,21.20
2023-09-05T09:05:32.537Z,17.30
2023-09-05T09:08:44.814Z,15.50
2023-09-05T09:11:59.761Z,16.20
2023-09-05T09:15:14.196Z,15.40
2023-09-05T09:18:17.660Z,15.50
2023-09-05T09:21:23.345Z,12.70
2023-09-05T09:24:31.786Z,13.90
2023-09-05T09:27:33.429Z,12.90
2023-09-05T09:30:35.200Z,15.40
2023-09-05T09:33:37.169Z,16.60
2023-09-05T09:36:39.130Z,14.80
2023-09-05T09:39:40.925Z,15.00
2023-09-05T09:42:43.912Z,11.40
2023-09-05T09:45:45.568Z,10.90
2023-09-05T09:48:48.058Z,12.10
2023-09-05T09:51:53.099Z,13.00
2023-09-05T09:54:56.277Z,12.30
2023-09-05T09:58:02.090Z,13.30
2023-09-05T10:01:05.020Z,12.00
2023-09-05T10:04:07.041Z,14.80
2023-09-05T10:07:11.549Z,12.50
2023-09-05T10:10:13.256Z,10.60
2023-09-05T10:13:15.717Z,11.40
2023-09-05T10:16:18.397Z,9.70
2023-09-05T10:19:20.961Z,11.10
2023-09-05T10:22:22.777Z,9.40
2023-09-05T10:25:24.820Z,11.50
2023-09-05T10:28:28.285Z,9.80
2023-09-05T10:31:30.815Z,10.80
2023-09-05T10:34:50.540Z,10.70
2023-09-05T10:37:59.205Z,12.00
2023-09-05T10:41:00.799Z,10.20
2023-09-05T10:44:02.723Z,12.90
2023-09-05T10:47:26.129Z,8.10
2023-09-05T10:50:27.835Z,10.50
2023-09-05T10:53:29.774Z,10.60
2023-09-05T10:56:42.370Z,9.00
2023-09-05T10:59:44.118Z,10.80
2023-09-05T11:02:48.344Z,9.20
2023-09-05T11:05:49.961Z,9.60
2023-09-05T11:09:01.992Z,9.20
2023-09-05T11:12:06.392Z,9.50
2023-09-05T11:15:08.846Z,10.00
2023-09-05T11:18:12.551Z,11.10
2023-09-05T11:21:22.932Z,12.10
2023-09-05T11:24:31.490Z,8.70
2023-09-05T11:27:33.270Z,9.60
2023-09-05T11:30:38.808Z,6.80
2023-09-05T11:33:40.511Z,9.90
2023-09-05T11:36:42.204Z,11.90
2023-09-05T11:39:43.957Z,11.00
2023-09-05T11:42:45.606Z,8.70
2023-09-05T11:45:47.414Z,9.30
2023-09-05T11:48:51.634Z,11.90
2023-09-05T11:51:53.454Z,8.30
2023-09-05T11:54:55.610Z,9.00
2023-09-05T11:57:58.454Z,12.20
2023-09-05T12:01:01.601Z,10.20
2023-09-05T12:04:04.091Z,11.10
2023-09-05T12:07:06.249Z,7.90
2023-09-05T12:10:08.384Z,10.20
2023-09-05T12:13:10.139Z,11.60
2023-09-05T12:16:12.043Z,10.70
2023-09-05T12:19:13.668Z,11.90
2023-09-05T12:22:21.427Z,11.10
2023-09-05T12:25:26.152Z,13.10
2023-09-05T12:28:28.916Z,9.20
2023-09-05T12:31:30.874Z,8.20
2023-09-05T12:34:32.546Z,9.60
2023-09-05T12:37:34.204Z,12.20
2023-09-05T12:40:35.859Z,9.60
2023-09-05T12:43:37.715Z,9.70
2023-09-05T12:46:39.504Z,11.40
2023-09-05T12:49:41.472Z,10.00
2023-09-05T12:52:43.862Z,9.00
2023-09-05T12:55:45.635Z,13.20
2023-09-05T12:58:47.447Z,9.90
2023-09-05T13:01:49.306Z,10.20
2023-09-05T13:04:51.073Z,14.90
2023-09-05T13:07:52.706Z,10.70
2023-09-05T13:10:54.281Z,12.50
2023-09-05T13:13:56.022Z,10.00
2023-09-05T13:16:57.659Z,11.80
2023-09-05T13:19:59.424Z,12.10
2023-09-05T13:23:01.531Z,11.20
2023-09-05T13:26:04.485Z,10.30
2023-09-05T13:29:07.055Z,11.90
2023-09-05T13:32:08.768Z,12.50
2023-09-05T13:35:10.698Z,11.60
2023-09-05T13:38:12.624Z,10.90
2023-09-05T13:41:14.171Z,13.60
2023-09-05T13:44:15.836Z,12.60
2023-09-05T13:47:18.216Z,12.70
2023-09-05T13:50:21.626Z,15.30
2023-09-05T13:53:23.633Z,16.00
2023-09-05T13:56:25.614Z,15.20
2023-09-05T13:59:27.377Z,13.00
2023-09-05T14:02:29.024Z,12.80
2023-09-05T14:05:30.936Z,12.20
2023-09-05T14:08:32.582Z,17.10
2023-09-05T14:11:34.258Z,12.80
2023-09-05T14:14:36.055Z,17.60
2023-09-05T14:17:37.748Z,16.50
2023-09-05T14:20:40.062Z,15.30
2023-09-05T14:23:41.823Z,19.40
2023-09-05T14:26:43.845Z,14.70
2023-09-05T14:29:45.432Z,18.60
2023-09-05T14:32:47.140Z,16.00
2023-09-05T14:35:48.726Z,16.10
2023-09-05T14:38:50.396Z,17.30
2023-09-05T14:41:52.083Z,16.10
2023-09-05T14:44:54.035Z,15.60
2023-09-05T14:47:56.344Z,13.40
2023-09-05T14:50:57.992Z,17.60
2023-09-05T14:53:59.565Z,15.60
2023-09-05T14:57:01.285Z,19.30
2023-09-05T15:00:03.421Z,17.50
2023-09-05T15:03:05.415Z,17.00
2023-09-05T15:06:07.611Z,15.70
2023-09-05T15:09:09.968Z,18.10
2023-09-05T15:12:12.092Z,15.40
2023-09-05T15:15:13.776Z,17.50
2023-09-05T15:18:15.456Z,14.90
2023-09-05T15:21:17.385Z,13.90
2023-09-05T15:24:19.062Z,14.60
2023-09-05T15:27:21.175Z,13.40
2023-09-05T15:30:22.948Z,13.40
2023-09-05T15:33:25.700Z,13.40
2023-09-05T15:36:28.823Z,14.10
2023-09-05T15:39:30.480Z,14.20
2023-09-05T15:42:32.691Z,11.70
2023-09-05T15:45:34.449Z,14.70
2023-09-05T15:48:36.247Z,16.80
2023-09-05T15:51:38.040Z,25.70
2023-09-05T15:54:43.105Z,17.70
2023-09-05T15:57:45.020Z,14.30
2023-09-05T16:00:47.568Z,15.80
2023-09-05T16:03:49.669Z,17.40
2023-09-05T16:06:51.599Z,16.00
2023-09-05T16:09:53.246Z,16.10
2023-09-05T16:12:54.929Z,16.10
2023-09-05T16:15:56.789Z,17.00
2023-09-05T16:19:05.435Z,15.80
2023-09-05T16:22:07.140Z,19.50
2023-09-05T16:25:09.562Z,13.70
2023-09-05T16:28:11.188Z,22.50
2023-09-05T16:31:17.935Z,15.50
2023-09-05T16:34:19.706Z,13.20
2023-09-05T16:37:24.096Z,17.40
2023-09-05T16:40:28.703Z,17.50
2023-09-05T16:43:30.876Z,31.30
2023-09-05T16:46:32.577Z,23.20
2023-09-05T16:49:34.451Z,47.50
2023-09-05T16:52:36.109Z,70.60
2023-09-05T16:55:38.094Z,24.10
2023-09-05T16:58:39.976Z,25.40
2023-09-05T17:01:41.740Z,25.80
2023-09-05T17:04:43.385Z,22.40
2023-09-05T17:07:45.314Z,23.50
2023-09-05T17:10:49.293Z,21.40
2023-09-05T17:13:50.903Z,24.90
2023-09-05T17:16:52.623Z,21.40
2023-09-05T17:19:54.312Z,25.20
2023-09-05T17:22:55.946Z,72.10
2023-09-05T17:25:58.222Z,33.00
2023-09-05T17:28:59.871Z,39.00
2023-09-05T17:32:01.732Z,36.60
2023-09-05T17:35:03.938Z,31.20
2023-09-05T17:38:05.826Z,28.60
2023-09-05T17:41:08.082Z,33.50
2023-09-05T17:44:10.179Z,26.70
2023-09-05T17:47:14.171Z,25.30
2023-09-05T17:50:16.389Z,24.70
2023-09-05T17:53:18.037Z,27.90
2023-09-05T17:56:19.662Z,29.20
2023-09-05T17:59:21.375Z,34.40
2023-09-05T18:02:23.306Z,31.70
2023-09-05T18:05:26.715Z,29.30
2023-09-05T18:08:29.007Z,30.70
2023-09-05T18:11:30.806Z,28.20
2023-09-05T18:14:39.068Z,28.10
2023-09-05T18:17:40.912Z,27.50
2023-09-05T18:20:42.533Z,27.80
2023-09-05T18:23:44.154Z,23.70
2023-09-05T18:26:46.240Z,24.40
2023-09-05T18:29:48.478Z,21.00
2023-09-05T18:32:51.287Z,19.50
2023-09-05T18:35:53.073Z,19.70
2023-09-05T18:38:54.695Z,22.40
2023-09-05T18:41:56.394Z,21.20
2023-09-05T18:44:58.189Z,19.80
2023-09-05T18:48:00.054Z,19.30
2023-09-05T18:51:02.147Z,18.30
2023-09-05T18:54:04.152Z,21.10
2023-09-05T18:57:05.970Z,19.40
2023-09-05T19:00:08.276Z,19.40
2023-09-05T19:03:09.995Z,22.40
2023-09-05T19:06:11.646Z,23.20
2023-09-05T19:09:13.854Z,20.50
2023-09-05T19:12:15.551Z,21.40
2023-09-05T19:15:17.368Z,22.00
2023-09-05T19:18:19.155Z,23.50
2023-09-05T19:21:20.989Z,20.00
2023-09-05T19:24:22.783Z,21.40
2023-09-05T19:27:24.498Z,25.20
2023-09-05T19:30:26.170Z,21.20
2023-09-05T19:33:27.793Z,18.40
2023-09-05T19:36:29.531Z,17.60
2023-09-05T19:39:31.379Z,21.60
2023-09-05T19:42:34.776Z,19.10
2023-09-05T19:45:36.401Z,18.10
2023-09-05T19:48:38.059Z,20.70
2023-09-05T19:51:39.776Z,17.80
2023-09-05T19:54:41.499Z,23.30
2023-09-05T19:57:43.370Z,25.00
2023-09-05T20:00:46.183Z,24.90
2023-09-05T20:03:48.172Z,21.60
2023-09-05T20:06:50.347Z,25.00
2023-09-05T20:09:52.085Z,18.00
2023-09-05T20:12:53.911Z,54.20
2023-09-05T20:15:56.085Z,32.30
2023-09-05T20:18:58.004Z,20.00
2023-09-05T20:21:59.722Z,18.00
2023-09-05T20:25:01.520Z,17.80
2023-09-05T20:28:03.226Z,17.50
2023-09-05T20:31:05.257Z,21.70
2023-09-05T20:34:07.095Z,24.00
2023-09-05T20:37:08.866Z,18.60
2023-09-05T20:40:11.103Z,20.70
2023-09-05T20:43:12.863Z,21.10
2023-09-05T20:46:14.514Z,19.80
2023-09-05T20:49:16.344Z,18.80
2023-09-05T20:52:18.136Z,17.40
2023-09-05T20:55:19.811Z,18.90
2023-09-05T20:58:21.455Z,20.40
2023-09-05T21:01:23.254Z,19.80
2023-09-05T21:04:25.283Z,21.10
2023-09-05T21:07:27.066Z,24.00
2023-09-05T21:10:28.952Z,19.70
2023-09-05T21:13:30.689Z,18.50
2023-09-05T21:16:32.341Z,18.60
2023-09-05T21:19:34.260Z,18.00
2023-09-05T21:22:35.853Z,22.90
2023-09-05T21:25:37.480Z,19.60
2023-09-05T21:28:40.015Z,22.00
2023-09-05T21:31:41.695Z,20.10
2023-09-05T21:34:43.429Z,20.30
2023-09-05T21:37:45.033Z,16.30
2023-09-05T21:40:46.947Z,17.00
2023-09-05T21:43:51.719Z,19.00
2023-09-05T21:46:53.718Z,19.00
2023-09-05T21:49:55.697Z,19.90
2023-09-05T21:52:57.242Z,17.80
2023-09-05T21:55:59.064Z,14.00
2023-09-05T21:59:00.733Z,20.60
2023-09-05T22:02:02.365Z,22.50
2023-09-05T22:05:04.307Z,22.30
2023-09-05T22:08:06.478Z,22.60
2023-09-05T22:11:08.131Z,21.30
2023-09-05T22:14:11.035Z,18.40
2023-09-05T22:17:15.013Z,21.00
2023-09-05T22:20:16.675Z,20.20
2023-09-05T22:23:19.263Z,17.70
2023-09-05T22:26:21.029Z,18.60
2023-09-05T22:29:22.901Z,21.30
2023-09-05T22:32:24.678Z,15.50
2023-09-05T22:35:33.369Z,20.70
2023-09-05T22:38:36.580Z,23.90
2023-09-05T22:41:39.069Z,63.30
2023-09-05T22:44:41.749Z,36.50
2023-09-05T22:47:43.840Z,41.10
2023-09-05T22:50:47.671Z,15.90
2023-09-05T22:53:49.934Z,17.30
2023-09-05T22:56:51.709Z,21.90
2023-09-05T22:59:53.381Z,18.60
2023-09-05T23:02:55.406Z,19.40
2023-09-05T23:05:57.588Z,19.20
2023-09-05T23:08:59.434Z,19.80
2023-09-05T23:12:02.171Z,20.70
2023-09-05T23:15:05.103Z,19.60
2023-09-05T23:18:07.822Z,19.60
2023-09-05T23:21:09.744Z,18.70
2023-09-05T23:24:11.329Z,20.90
2023-09-05T23:27:13.462Z,18.20
2023-09-05T23:30:15.279Z,17.10
2023-09-05T23:33:18.114Z,15.10
2023-09-05T23:36:20.825Z,17.20
2023-09-05T23:39:23.126Z,19.20
2023-09-05T23:42:25.140Z,18.00
2023-09-05T23:45:27.873Z,16.70
2023-09-05T23:48:29.731Z,14.80
2023-09-05T23:51:31.671Z,17.20
2023-09-05T23:54:33.380Z,16.40
2023-09-05T23:57:35.206Z,12.60
